Time;durP1;ratioP1;P1;durP2;ratioP2;P2;SDS_P1;SDS_P2;PMS_P1;PMS_P2;Temp;Humidity;BMP_temperature;BMP_pressure;BME280_temperature;BME280_humidity;BME280_pressure;Samples;Min_cycle;Max_cycle;Signal;HPM_P1;HPM_P2
2021/04/22 00:00:49;;;;;;;26.87;16.67;;;;;;;7.23;80.75;99974.64;1747320;81;21153;-76
2021/04/22 00:03:17;;;;;;;30.62;17.00;;;;;;;7.24;80.57;99978.96;1747460;82;21797;-76
2021/04/22 00:05:46;;;;;;;27.95;17.75;;;;;;;7.26;80.72;99985.02;1747426;82;21499;-75
2021/04/22 00:08:14;;;;;;;27.85;15.78;;;;;;;7.27;81.01;99981.95;1747086;81;21568;-76
2021/04/22 00:10:47;;;;;;;27.67;17.45;;;;;;;7.28;80.69;99987.16;1747375;81;21161;-75
2021/04/22 00:13:18;;;;;;;30.77;17.02;;;;;;;7.28;80.96;99983.23;1747588;82;21192;-75
2021/04/22 00:15:51;;;;;;;27.20;17.90;;;;;;;7.30;80.59;99978.81;1747303;82;21260;-76
2021/04/22 00:18:19;;;;;;;29.60;17.80;;;;;;;7.31;80.15;99983.14;1747603;82;21791;-76
2021/04/22 00:20:49;;;;;;;29.67;18.37;;;;;;;7.31;79.55;99979.20;1747351;81;21216;-74
2021/04/22 00:23:17;;;;;;;29.87;19.07;;;;;;;7.31;79.86;99979.20;1747464;81;21624;-75
2021/04/22 00:25:47;;;;;;;23.65;15.60;;;;;;;7.29;79.16;99977.11;1745171;81;21698;-75
2021/04/22 00:28:16;;;;;;;28.07;17.95;;;;;;;7.30;79.39;99981.44;1666173;86;21562;-76
2021/04/22 00:30:44;;;;;;;29.57;17.32;;;;;;;7.32;79.40;99985.33;1674122;84;21176;-76
2021/04/22 00:33:18;;;;;;;24.52;17.07;;;;;;;7.32;79.73;99978.78;1672773;84;21750;-76
2021/04/22 00:35:47;;;;;;;31.15;19.27;;;;;;;7.31;80.19;99980.52;1665919;84;21822;-76
2021/04/22 00:38:17;;;;;;;30.75;17.98;;;;;;;7.30;80.32;99981.44;1676382;85;21312;-75
2021/04/22 00:40:47;;;;;;;31.80;19.25;;;;;;;7.31;80.64;99991.45;1704363;83;21493;-75
2021/04/22 00:43:17;;;;;;;34.60;20.25;;;;;;;7.27;80.58;99986.77;1688103;84;21636;-76
2021/04/22 00:45:46;;;;;;;33.23;19.80;;;;;;;7.23;80.80;99986.42;1690413;84;21189;-75
2021/04/22 00:48:22;;;;;;;33.63;19.67;;;;;;;7.20;80.38;99993.06;1690539;84;21434;-76
2021/04/22 00:50:54;;;;;;;31.75;19.40;;;;;;;7.17;80.07;99990.50;1689963;84;21212;-76
2021/04/22 00:53:22;;;;;;;29.57;19.62;;;;;;;7.15;80.15;100000.15;1690784;84;21828;-76
2021/04/22 00:55:52;;;;;;;25.70;16.40;;;;;;;7.15;80.69;99998.84;1690398;84;21675;-76
2021/04/22 00:58:20;;;;;;;33.85;19.48;;;;;;;7.14;80.62;99998.44;1690537;84;21209;-75
2021/04/22 01:00:56;;;;;;;28.10;17.62;;;;;;;7.09;81.10;99999.02;1690618;84;21700;-76
2021/04/22 01:03:27;;;;;;;27.17;18.67;;;;;;;7.10;80.86;100000.27;1690712;84;21172;-76
2021/04/22 01:06:01;;;;;;;31.80;18.90;;;;;;;7.09;81.16;99997.70;1690582;84;21435;-76
2021/04/22 01:08:29;;;;;;;29.63;19.20;;;;;;;7.08;81.18;99993.34;1686150;83;21204;-76
2021/04/22 01:10:58;;;;;;;32.35;19.42;;;;;;;7.05;81.53;99990.81;1663417;85;21199;-75
2021/04/22 01:13:26;;;;;;;30.37;19.07;;;;;;;7.04;81.00;99998.24;1692727;84;21208;-75
2021/04/22 01:15:58;;;;;;;28.47;18.40;;;;;;;7.02;81.36;99999.61;1663265;86;21171;-75
2021/04/22 01:18:26;;;;;;;28.80;18.12;;;;;;;7.01;81.62;99994.40;1693080;84;22264;-74
2021/04/22 01:20:55;;;;;;;29.07;17.92;;;;;;;6.97;81.82;100003.22;1663245;86;21769;-75
2021/04/22 01:23:23;;;;;;;30.32;19.05;;;;;;;6.89;81.49;100005.58;1694351;84;21727;-75
2021/04/22 01:25:52;;;;;;;31.02;19.37;;;;;;;6.81;81.68;100006.23;1674984;83;21240;-75
2021/04/22 01:28:22;;;;;;;34.25;20.82;;;;;;;6.74;81.82;100008.58;1685795;85;21199;-76
2021/04/22 01:30:55;;;;;;;28.17;17.12;;;;;;;6.68;82.08;100010.02;1685780;85;21619;-75
2021/04/22 01:33:26;;;;;;;32.25;18.60;;;;;;;6.66;82.19;100006.57;1685969;85;21232;-75
2021/04/22 01:35:57;;;;;;;26.95;18.05;;;;;;;6.64;82.30;100008.36;1685773;85;21215;-75
2021/04/22 01:38:26;;;;;;;30.25;19.45;;;;;;;6.59;82.58;100008.47;1685867;85;21195;-74
2021/04/22 01:40:54;;;;;;;25.60;16.15;;;;;;;6.56;82.93;100010.31;1659199;86;21161;-77
2021/04/22 01:43:24;;;;;;;28.65;15.83;;;;;;;6.50;83.00;100008.22;1679078;85;22275;-76
2021/04/22 01:45:53;;;;;;;27.82;17.52;;;;;;;6.47;83.41;100013.53;1712082;83;21293;-76
2021/04/22 01:48:21;;;;;;;28.67;17.02;;;;;;;6.42;83.75;100004.92;1712598;83;21222;-76
2021/04/22 01:50:49;;;;;;;25.68;16.93;;;;;;;6.39;84.08;100016.74;1712187;83;21211;-75
2021/04/22 01:53:17;;;;;;;30.35;18.95;;;;;;;6.33;84.42;100009.05;1712402;83;21254;-77
2021/04/22 01:55:48;;;;;;;32.08;19.67;;;;;;;6.25;84.36;100014.42;1712419;83;21815;-75
2021/04/22 01:58:20;;;;;;;29.40;18.15;;;;;;;6.18;84.39;100004.14;1712465;83;27732;-76
2021/04/22 02:00:53;;;;;;;29.92;18.48;;;;;;;6.11;84.57;100006.02;1712223;83;21183;-76
2021/04/22 02:03:22;;;;;;;29.02;18.52;;;;;;;6.03;84.67;100012.72;1712627;83;21638;-76
2021/04/22 02:05:51;;;;;;;30.52;19.32;;;;;;;5.94;84.70;100016.83;1712216;83;21171;-77
2021/04/22 02:08:20;;;;;;;29.87;18.60;;;;;;;5.90;85.20;100016.43;1714580;81;21610;-76
2021/04/22 02:10:49;;;;;;;29.32;17.98;;;;;;;5.87;85.39;100017.36;1747210;82;21181;-77
2021/04/22 02:13:19;;;;;;;28.67;16.57;;;;;;;5.84;85.30;100013.92;1747236;82;21188;-76
2021/04/22 02:15:48;;;;;;;25.52;16.20;;;;;;;5.82;85.70;100017.02;1747090;81;21216;-77
2021/04/22 02:18:17;;;;;;;27.55;17.42;;;;;;;5.80;85.65;100004.00;1747368;82;21648;-74
2021/04/22 02:20:45;;;;;;;23.05;15.60;;;;;;;5.79;85.71;100008.79;1747180;82;21244;-77
2021/04/22 02:23:16;;;;;;;30.97;19.10;;;;;;;5.79;85.91;100006.63;1747248;81;21173;-78
2021/04/22 02:25:44;;;;;;;31.45;18.23;;;;;;;5.78;86.13;100006.23;1747588;81;21625;-78
2021/04/22 02:28:12;;;;;;;34.48;20.25;;;;;;;5.78;86.34;100006.23;1736396;82;21208;-79
2021/04/22 02:30:42;;;;;;;31.05;19.62;;;;;;;5.81;86.63;99999.63;1735762;82;21135;-78
2021/04/22 02:33:13;;;;;;;37.13;22.58;;;;;;;5.83;86.85;100005.69;1736078;82;21612;-79
2021/04/22 02:35:44;;;;;;;43.63;23.87;;;;;;;5.84;86.65;100011.31;1735777;82;21186;-79
2021/04/22 02:38:12;;;;;;;43.60;24.35;;;;;;;5.82;86.26;100014.39;1735888;82;21655;-78
2021/04/22 02:40:42;;;;;;;38.98;22.37;;;;;;;5.80;85.79;100011.84;1735763;82;21192;-79
2021/04/22 02:43:12;;;;;;;39.58;19.87;;;;;;;5.79;85.83;100011.86;1738827;82;21196;-79
2021/04/22 02:45:43;;;;;;;31.42;16.82;;;;;;;5.78;86.04;100007.53;1741071;82;21427;-76
2021/04/22 02:48:12;;;;;;;27.65;16.20;;;;;;;5.77;86.16;100009.71;1749947;82;21284;-78
2021/04/22 02:50:44;;;;;;;34.90;19.10;;;;;;;5.75;86.05;100012.80;1749804;82;21197;-79
2021/04/22 02:53:22;;;;;;;26.48;15.35;;;;;;;5.76;86.41;100010.17;1845698;76;27041;-78
2021/04/22 02:55:51;;;;;;;35.30;19.15;;;;;;;5.73;86.65;100011.96;1815688;78;22261;-79
2021/04/22 02:58:23;;;;;;;41.53;22.17;;;;;;;5.71;86.83;100013.77;1815670;79;21356;-78
2021/04/22 03:00:51;;;;;;;35.78;20.57;;;;;;;5.68;86.84;100020.77;1815713;79;21618;-78
2021/04/22 03:03:19;;;;;;;29.90;18.48;;;;;;;5.69;87.11;100016.41;1815928;78;21614;-79
2021/04/22 03:05:47;;;;;;;32.88;19.42;;;;;;;5.71;87.29;100025.53;1815685;79;22189;-79
2021/04/22 03:08:16;;;;;;;37.98;21.02;;;;;;;5.72;87.49;100022.87;1804592;79;21167;-79
2021/04/22 03:10:46;;;;;;;39.90;22.00;;;;;;;5.72;87.61;100023.31;1781245;80;22075;-78
2021/04/22 03:13:15;;;;;;;38.88;21.12;;;;;;;5.73;87.53;100031.56;1783203;80;21808;-80
2021/04/22 03:15:43;;;;;;;37.93;21.02;;;;;;;5.74;87.23;100029.38;1783256;80;21083;-78
2021/04/22 03:18:11;;;;;;;42.55;20.08;;;;;;;5.75;87.14;100035.01;1783328;80;21203;-80
2021/04/22 03:20:40;;;;;;;33.48;20.35;;;;;;;5.75;86.97;100032.39;1783481;80;21183;-79
2021/04/22 03:23:08;;;;;;;35.98;20.08;;;;;;;5.76;87.00;100034.13;1783641;80;21133;-78
2021/04/22 03:25:36;;;;;;;36.03;20.02;;;;;;;5.80;86.97;100039.73;1783474;80;21185;-80
2021/04/22 03:28:04;;;;;;;35.48;19.10;;;;;;;5.83;86.90;100040.52;1783429;80;21199;-77
2021/04/22 03:30:33;;;;;;;28.07;16.57;;;;;;;5.86;86.87;100034.36;1783651;80;21178;-79
2021/04/22 03:33:01;;;;;;;31.70;17.75;;;;;;;5.90;86.63;100037.34;1783527;80;21193;-80
2021/04/22 03:35:31;;;;;;;36.88;19.05;;;;;;;5.96;86.80;100038.57;1783714;79;21878;-80
2021/04/22 03:37:59;;;;;;;34.67;20.85;;;;;;;6.05;86.74;100044.92;1783389;80;21202;-80
2021/04/22 03:40:29;;;;;;;36.73;20.85;;;;;;;6.08;86.31;100044.86;1783689;80;21146;-80
2021/04/22 03:42:58;;;;;;;36.73;20.75;;;;;;;6.07;86.00;100045.76;1783462;80;21179;-80
2021/04/22 03:45:25;;;;;;;39.60;21.48;;;;;;;6.05;85.99;100051.46;1779406;80;21142;-79
2021/04/22 03:47:53;;;;;;;42.67;23.02;;;;;;;6.00;85.80;100051.97;1763647;79;21879;-77
2021/04/22 03:50:22;;;;;;;33.33;19.07;;;;;;;6.00;86.24;100053.28;1783653;80;21119;-78
2021/04/22 03:52:50;;;;;;;38.10;22.13;;;;;;;6.01;86.15;100055.02;1792786;79;21133;-77
2021/04/22 03:55:19;;;;;;;33.45;20.37;;;;;;;6.15;86.13;100061.73;1798166;79;21197;-77
2021/04/22 03:57:47;;;;;;;35.63;20.43;;;;;;;6.38;84.68;100063.42;1788935;79;21605;-78
2021/04/22 04:00:19;;;;;;;36.25;19.45;;;;;;;6.65;83.27;100065.91;1798270;79;22327;-78
2021/04/22 04:02:48;;;;;;;34.70;19.32;;;;;;;6.88;82.47;100074.55;1797975;79;21218;-76
2021/04/22 04:05:17;;;;;;;31.25;18.42;;;;;;;7.02;81.74;100076.00;1797628;79;21197;-75
2021/04/22 04:07:45;;;;;;;32.20;17.62;;;;;;;7.14;81.17;100074.39;1797418;79;21165;-77
2021/04/22 04:10:13;;;;;;;36.08;18.35;;;;;;;7.30;81.00;100079.67;1797632;79;21601;-76
2021/04/22 04:12:41;;;;;;;30.48;17.17;;;;;;;7.44;80.03;100088.50;1797342;79;22250;-76
2021/04/22 04:15:11;;;;;;;27.35;16.48;;;;;;;7.66;79.81;100086.21;1793465;79;21646;-74
2021/04/22 04:17:39;;;;;;;26.30;15.93;;;;;;;7.97;77.73;100091.95;1791044;80;21198;-74
2021/04/22 04:20:10;;;;;;;22.37;15.28;;;;;;;8.31;76.86;100085.32;1792037;79;21650;-78
2021/04/22 04:22:38;;;;;;;24.18;15.25;;;;;;;8.67;74.84;100083.00;1791988;79;21166;-78
2021/04/22 04:25:07;;;;;;;23.07;14.68;;;;;;;8.92;73.45;100083.97;1791239;80;21453;-78
2021/04/22 04:27:35;;;;;;;22.65;14.73;;;;;;;9.18;71.38;100083.63;1788032;80;21199;-79
2021/04/22 04:30:05;;;;;;;30.72;16.87;;;;;;;9.40;70.67;100085.94;1787397;80;22423;-77
2021/04/22 04:32:34;;;;;;;38.58;18.52;;;;;;;9.69;70.12;100085.44;1787261;80;21211;-78
2021/04/22 04:35:03;;;;;;;36.33;19.25;;;;;;;9.97;68.92;100089.75;1787231;80;21132;-78
2021/04/22 04:37:30;;;;;;;33.28;18.32;;;;;;;10.19;67.79;100083.24;1787320;79;22072;-79
2021/04/22 04:39:58;;;;;;;24.18;15.40;;;;;;;10.21;67.35;100094.11;1787357;79;21596;-79
2021/04/22 04:42:26;;;;;;;29.37;15.00;;;;;;;10.28;67.16;100090.41;1787167;80;21168;-79
2021/04/22 04:44:54;;;;;;;24.47;14.68;;;;;;;10.20;67.61;100094.19;1789990;79;21593;-79
2021/04/22 04:47:22;;;;;;;22.17;14.30;;;;;;;10.23;68.09;100097.55;1793659;80;22245;-80
2021/04/22 04:49:50;;;;;;;20.88;14.60;;;;;;;10.26;68.14;100101.84;1793630;80;22780;-78
2021/04/22 04:52:18;;;;;;;21.33;14.07;;;;;;;10.21;68.19;100100.69;1790628;80;21198;-78
2021/04/22 04:54:46;;;;;;;23.90;15.05;;;;;;;10.13;69.01;100105.39;1784220;80;21151;-79
2021/04/22 04:57:15;;;;;;;19.65;14.73;;;;;;;9.97;68.31;100102.90;1762621;80;21222;-79
2021/04/22 04:59:43;;;;;;;23.92;14.70;;;;;;;9.86;68.51;100103.26;1775501;79;21194;-81
2021/04/22 05:02:11;;;;;;;21.68;14.75;;;;;;;9.81;68.17;100106.05;1782958;80;21418;-79
2021/04/22 05:04:39;;;;;;;21.60;14.73;;;;;;;9.77;68.96;100105.74;1770826;80;21193;-80
2021/04/22 05:07:07;;;;;;;26.23;14.75;;;;;;;9.71;68.85;100108.60;1770973;80;21605;-79
2021/04/22 05:09:40;;;;;;;24.30;15.55;;;;;;;9.60;68.83;100112.05;1773368;80;21230;-79
2021/04/22 05:12:09;;;;;;;24.63;16.12;;;;;;;9.63;68.92;100115.41;1763348;80;21169;-79
2021/04/22 05:14:37;;;;;;;24.45;15.70;;;;;;;10.05;67.78;100112.25;1777363;80;21354;-80
2021/04/22 05:17:05;;;;;;;25.30;15.15;;;;;;;10.57;65.79;100110.84;1778640;80;21191;-80
2021/04/22 05:19:35;;;;;;;28.00;14.95;;;;;;;11.02;63.97;100104.73;1779743;80;21216;-81
2021/04/22 05:22:03;;;;;;;23.18;14.87;;;;;;;11.55;63.60;100097.75;1782392;80;21622;-80
2021/04/22 05:24:31;;;;;;;22.85;14.40;;;;;;;12.02;60.58;100106.39;1781148;80;21780;-80
2021/04/22 05:26:59;;;;;;;21.97;14.73;;;;;;;12.33;59.57;100098.84;1768707;80;21350;-79
2021/04/22 05:29:27;;;;;;;26.65;15.30;;;;;;;12.60;58.31;100102.46;1767417;80;21220;-80
2021/04/22 05:31:55;;;;;;;22.62;15.63;;;;;;;12.80;57.92;100101.08;1765612;80;21649;-81
2021/04/22 05:34:24;;;;;;;23.22;15.80;;;;;;;12.68;57.54;100106.94;1767077;79;21118;-80
2021/04/22 05:36:52;;;;;;;23.50;15.75;;;;;;;12.32;57.98;100103.70;1777885;80;21174;-81
2021/04/22 05:39:22;;;;;;;23.67;16.35;;;;;;;12.02;58.86;100103.75;1782944;80;22047;-80
2021/04/22 05:41:51;;;;;;;27.85;16.55;;;;;;;11.82;59.11;100108.05;1780058;79;21186;-79
2021/04/22 05:44:18;;;;;;;27.73;17.12;;;;;;;11.72;59.59;100104.10;1760773;80;21185;-79
2021/04/22 05:46:46;;;;;;;24.87;16.30;;;;;;;11.72;60.01;100112.87;1769702;80;21102;-82
2021/04/22 05:49:17;;;;;;;24.75;16.17;;;;;;;11.80;60.18;100119.16;1769642;80;21641;-80
2021/04/22 05:51:45;;;;;;;29.98;17.07;;;;;;;11.85;59.75;100112.37;1760347;80;21202;-81
2021/04/22 05:54:14;;;;;;;27.05;16.82;;;;;;;11.72;60.15;100107.59;1789170;79;21213;-79
2021/04/22 05:56:42;;;;;;;26.95;17.82;;;;;;;11.59;59.91;100113.44;1778701;79;21393;-80
2021/04/22 05:59:09;;;;;;;26.35;17.57;;;;;;;11.47;60.39;100115.66;1775965;79;21864;-81
2021/04/22 06:01:37;;;;;;;32.35;18.67;;;;;;;11.52;60.77;100116.32;1765451;80;21729;-80
2021/04/22 06:04:06;;;;;;;29.87;17.48;;;;;;;11.58;60.61;100109.95;1728790;81;21428;-79
2021/04/22 06:06:34;;;;;;;29.77;18.07;;;;;;;11.64;60.88;100116.30;1735274;81;21261;-80
2021/04/22 06:09:04;;;;;;;26.75;17.57;;;;;;;11.66;61.49;100118.86;1756505;80;21217;-80
2021/04/22 06:11:32;;;;;;;30.55;18.55;;;;;;;11.68;61.04;100119.19;1727023;83;21133;-80
2021/04/22 06:14:01;;;;;;;30.97;17.57;;;;;;;11.66;61.54;100118.86;1771141;80;21139;-80
2021/04/22 06:16:30;;;;;;;29.05;18.75;;;;;;;11.63;62.76;100122.95;1724641;83;21830;-79
2021/04/22 06:18:58;;;;;;;30.55;19.35;;;;;;;11.72;61.30;100120.78;1729467;82;21150;-81
2021/04/22 06:21:25;;;;;;;24.05;18.02;;;;;;;12.00;60.82;100126.70;1778490;80;21110;-79
2021/04/22 06:23:53;;;;;;;25.05;18.37;;;;;;;12.25;59.10;100131.31;1760093;81;21148;-80
2021/04/22 06:26:23;;;;;;;24.67;16.35;;;;;;;12.62;60.24;100127.03;1778764;80;21150;-83
2021/04/22 06:28:51;;;;;;;23.85;16.20;;;;;;;13.09;57.23;100120.02;1748065;81;21805;-82
2021/04/22 06:31:18;;;;;;;23.98;15.35;;;;;;;13.53;55.46;100118.34;1752366;80;21198;-81
2021/04/22 06:33:46;;;;;;;18.45;13.68;;;;;;;13.96;54.46;100116.17;1713751;83;21224;-80
2021/04/22 06:36:17;;;;;;;20.97;14.53;;;;;;;14.42;52.19;100115.13;1775223;80;21170;-80
2021/04/22 06:38:45;;;;;;;20.37;14.18;;;;;;;14.68;51.42;100111.56;1720428;82;21229;-81
2021/04/22 06:41:15;;;;;;;18.07;14.07;;;;;;;14.97;50.47;100114.41;1763095;80;21907;-81
2021/04/22 06:43:44;;;;;;;24.30;14.95;;;;;;;15.38;50.37;100112.55;1757989;81;21156;-81
2021/04/22 06:46:12;;;;;;;18.70;12.78;;;;;;;15.98;49.80;100113.91;1755611;81;21611;-81
2021/04/22 06:48:41;;;;;;;17.37;12.10;;;;;;;16.60;47.21;100116.34;1778659;80;21166;-82
2021/04/22 06:51:09;;;;;;;20.10;14.40;;;;;;;17.16;46.26;100108.40;1757037;81;21225;-82
2021/04/22 06:53:38;;;;;;;21.75;14.58;;;;;;;17.68;45.12;100114.30;1761251;81;21789;-81
2021/04/22 06:56:07;;;;;;;19.87;11.53;;;;;;;17.76;44.77;100111.11;1775750;80;21197;-80
2021/04/22 06:58:37;;;;;;;22.40;10.95;;;;;;;17.74;43.87;100109.91;1776777;80;21162;-81
2021/04/22 07:01:05;;;;;;;19.65;10.88;;;;;;;17.54;42.79;100115.70;1785948;80;21625;-75
2021/04/22 07:03:33;;;;;;;15.72;11.60;;;;;;;17.06;43.78;100114.80;1781499;79;21123;-76
2021/04/22 07:06:02;;;;;;;15.23;11.53;;;;;;;16.79;45.12;100117.41;1779717;79;21393;-76
2021/04/22 07:08:30;;;;;;;20.40;9.78;;;;;;;16.50;44.97;100117.88;1780629;80;21239;-76
2021/04/22 07:10:59;;;;;;;14.30;9.35;;;;;;;16.32;45.46;100121.19;1780127;80;21170;-77
2021/04/22 07:13:27;;;;;;;16.17;9.98;;;;;;;16.10;45.91;100119.84;1778516;80;21199;-75
2021/04/22 07:15:54;;;;;;;14.50;10.38;;;;;;;16.14;45.96;100121.82;1777669;80;21560;-78
2021/04/22 07:18:25;;;;;;;17.35;10.90;;;;;;;16.52;45.24;100122.63;1776502;80;21379;-77
2021/04/22 07:20:52;;;;;;;14.25;10.53;;;;;;;16.86;45.36;100125.37;1754013;79;21195;-80
2021/04/22 07:23:20;;;;;;;14.65;9.98;;;;;;;17.24;44.95;100115.42;1737490;81;21160;-80
2021/04/22 07:25:50;;;;;;;16.70;10.05;;;;;;;17.50;44.15;100119.03;1771117;80;21189;-79
2021/04/22 07:28:18;;;;;;;15.48;10.38;;;;;;;17.67;44.18;100119.72;1774323;80;21217;-78
2021/04/22 07:30:46;;;;;;;12.40;9.73;;;;;;;17.55;44.53;100126.71;1774187;80;21307;-82
2021/04/22 07:33:14;;;;;;;14.38;9.00;;;;;;;17.31;44.97;100125.20;1774401;80;21209;-80
2021/04/22 07:35:43;;;;;;;15.23;9.48;;;;;;;17.26;44.08;100122.84;1776215;80;21665;-81
2021/04/22 07:38:13;;;;;;;13.95;9.18;;;;;;;17.16;44.74;100123.03;1776741;80;21736;-79
2021/04/22 07:40:45;;;;;;;12.88;8.73;;;;;;;17.10;42.98;100124.78;1778561;80;21166;-79
2021/04/22 07:43:14;;;;;;;15.03;8.85;;;;;;;16.87;43.76;100114.28;1777365;80;21146;-82
2021/04/22 07:45:44;;;;;;;20.75;9.80;;;;;;;16.79;44.15;100114.74;1772093;80;21129;-80
2021/04/22 07:48:12;;;;;;;15.43;8.63;;;;;;;16.70;43.90;100114.84;1772636;80;21187;-78
2021/04/22 07:50:42;;;;;;;20.43;10.38;;;;;;;16.56;44.43;100119.69;1776194;80;21724;-80
2021/04/22 07:53:10;;;;;;;17.82;9.10;;;;;;;16.56;44.90;100113.49;1778300;79;21156;-80
2021/04/22 07:55:54;;;;;;;10.43;7.72;;;;;;;16.77;43.96;100117.94;1842316;76;22878;-80
2021/04/22 07:58:22;;;;;;;13.32;7.42;;;;;;;16.88;42.55;100112.83;1744589;81;21121;-81
2021/04/22 08:00:49;;;;;;;17.77;7.37;;;;;;;17.30;43.13;100101.73;1750362;79;21384;-81
2021/04/22 08:03:18;;;;;;;10.90;7.30;;;;;;;17.70;41.08;100104.40;1736924;81;21254;-79
2021/04/22 08:05:47;;;;;;;14.75;7.53;;;;;;;18.12;40.68;100113.61;1751777;81;21182;-80
2021/04/22 08:08:17;;;;;;;11.20;7.03;;;;;;;18.41;40.30;100103.11;1742095;79;21642;-79
2021/04/22 08:10:46;;;;;;;9.63;6.85;;;;;;;18.71;39.24;100101.91;1745822;81;21648;-81
2021/04/22 08:13:16;;;;;;;14.87;7.03;;;;;;;19.05;38.48;100103.03;1735261;82;21512;-80
2021/04/22 08:15:49;;;;;;;12.30;7.30;;;;;;;19.31;36.88;100105.60;1773030;80;21230;-79
2021/04/22 08:18:17;;;;;;;12.65;7.70;;;;;;;19.29;36.23;100100.86;1783039;80;21669;-79
2021/04/22 08:20:45;;;;;;;12.40;7.05;;;;;;;19.18;36.94;100098.97;1782661;80;21172;-79
2021/04/22 08:23:13;;;;;;;11.28;6.53;;;;;;;18.98;37.44;100101.78;1751875;81;21169;-79
2021/04/22 08:25:49;;;;;;;9.18;6.28;;;;;;;19.11;36.63;100095.53;1740671;82;21229;-78
2021/04/22 08:28:18;;;;;;;11.68;6.95;;;;;;;19.12;36.30;100095.44;1739762;82;21185;-79
2021/04/22 08:31:00;;;;;;;11.73;6.70;;;;;;;19.37;36.88;100098.48;1742089;82;21194;-79
2021/04/22 08:33:31;;;;;;;10.82;6.40;;;;;;;19.47;35.45;100089.30;1739376;81;21189;-79
2021/04/22 08:36:00;;;;;;;13.32;7.17;;;;;;;19.29;36.62;100089.69;1780508;80;21146;-78
2021/04/22 08:38:28;;;;;;;9.83;6.17;;;;;;;19.39;36.24;100095.19;1752070;81;21382;-79
2021/04/22 08:40:56;;;;;;;11.22;6.50;;;;;;;19.12;36.84;100091.89;1740721;82;21189;-79
2021/04/22 08:43:24;;;;;;;13.68;5.90;;;;;;;18.72;36.58;100085.41;1746122;81;21145;-77
2021/04/22 08:45:53;;;;;;;11.63;6.17;;;;;;;18.48;38.19;100088.03;1734951;81;21181;-79
2021/04/22 08:48:21;;;;;;;12.45;6.03;;;;;;;18.44;37.09;100090.05;1741235;82;21174;-79
2021/04/22 08:50:50;;;;;;;14.75;6.17;;;;;;;18.18;36.55;100083.39;1741595;82;21817;-79
2021/04/22 08:53:22;;;;;;;12.03;6.33;;;;;;;18.10;37.04;100085.72;1740531;82;21146;-78
2021/04/22 08:55:50;;;;;;;21.00;6.42;;;;;;;18.06;37.42;100081.59;1747149;81;21133;-78
2021/04/22 08:58:19;;;;;;;18.65;6.20;;;;;;;18.28;36.63;100080.94;1736493;82;21154;-78
2021/04/22 09:01:12;;;;;;;11.35;6.03;;;;;;;18.10;36.63;100087.05;1741448;82;21616;-78
2021/04/22 09:03:41;;;;;;;10.72;6.20;;;;;;;18.02;37.86;100082.75;1720993;82;22290;-79
2021/04/22 09:06:12;;;;;;;15.30;6.72;;;;;;;17.95;38.49;100082.80;1746779;81;21188;-78
2021/04/22 09:08:44;;;;;;;13.78;6.28;;;;;;;17.86;37.86;100090.09;1750928;81;21197;-78
2021/04/22 09:11:19;;;;;;;15.10;6.65;;;;;;;17.91;38.00;100075.97;1747910;81;21148;-79
2021/04/22 09:13:47;;;;;;;13.98;6.12;;;;;;;17.84;38.74;100077.34;1744910;81;21597;-78
2021/04/22 09:16:20;;;;;;;11.45;5.85;;;;;;;17.80;37.17;100079.32;1741365;82;21382;-78
2021/04/22 09:18:51;;;;;;;18.65;6.35;;;;;;;17.98;36.48;100081.25;1740914;82;21146;-79
2021/04/22 09:21:27;;;;;;;8.50;5.58;;;;;;;18.02;35.70;100074.76;1741123;82;21177;-78
2021/04/22 09:24:14;;;;;;;31.17;6.17;;;;;;;18.04;35.85;100071.52;1738765;81;21177;-77
2021/04/22 09:26:51;;;;;;;18.27;6.75;;;;;;;17.94;35.94;100077.08;1730641;82;21624;-77
2021/04/22 09:29:35;;;;;;;10.58;6.47;;;;;;;17.81;37.00;100069.94;1741100;82;21207;-79
2021/04/22 09:32:22;;;;;;;11.03;6.20;;;;;;;17.88;36.90;100076.19;1737561;82;21445;-75
2021/04/22 09:34:55;;;;;;;10.88;6.10;;;;;;;17.91;37.67;100066.64;1781688;80;21205;-79
2021/04/22 09:37:30;;;;;;;18.27;6.75;;;;;;;18.07;37.31;100071.77;1781019;79;21230;-78
2021/04/22 09:39:58;;;;;;;9.10;6.05;;;;;;;18.00;37.17;100060.69;1774582;80;21154;-77
2021/04/22 09:42:26;;;;;;;9.15;6.28;;;;;;;17.89;36.88;100061.89;1779642;79;22207;-78
2021/04/22 09:44:54;;;;;;;13.95;5.33;;;;;;;17.63;36.38;100065.83;1777923;79;21180;-78
2021/04/22 09:47:23;;;;;;;13.43;6.72;;;;;;;17.48;37.08;100055.70;1728839;81;21540;-77
2021/04/22 09:49:58;;;;;;;11.08;6.55;;;;;;;17.64;37.24;100053.36;1730022;82;21178;-78
2021/04/22 09:52:34;;;;;;;13.03;5.75;;;;;;;18.05;36.44;100054.55;1728991;81;21191;-78
2021/04/22 09:55:03;;;;;;;11.43;5.90;;;;;;;18.65;35.71;100064.99;1729640;81;21421;-78
2021/04/22 09:59:14;;;;;;;54.55;6.95;;;;;;;18.84;34.80;100043.20;1795906;79;22517;-78
2021/04/22 10:01:41;;;;;;;;;;;;;;;18.84;34.08;100046.75;1764198;80;21214;-77
2021/04/22 10:04:09;;;;;;;12.75;6.00;;;;;;;19.03;34.80;100035.56;1766452;80;21545;-78
2021/04/22 10:06:43;;;;;;;15.28;6.03;;;;;;;19.18;34.00;100039.39;1747484;80;21681;-78
2021/04/22 10:09:11;;;;;;;16.52;5.90;;;;;;;19.20;34.41;100046.81;1747162;80;21772;-78
2021/04/22 10:11:49;;;;;;;12.68;5.97;;;;;;;19.28;33.73;100034.59;1738981;81;21191;-79
2021/04/22 10:14:33;;;;;;;9.30;5.85;;;;;;;19.00;35.44;100039.81;1742697;81;21222;-79
2021/04/22 10:17:18;;;;;;;11.18;7.20;;;;;;;18.62;35.21;100035.39;1743291;80;22130;-78
2021/04/22 10:20:10;;;;;;;9.10;5.20;;;;;;;18.26;35.51;100034.02;1702860;83;21221;-79
2021/04/22 10:22:43;;;;;;;13.38;6.45;;;;;;;18.37;35.43;100031.45;1685438;85;21626;-78
2021/04/22 10:25:18;;;;;;;10.68;5.90;;;;;;;18.28;36.10;100032.11;1681933;84;21194;-77
2021/04/22 10:27:47;;;;;;;14.40;6.90;;;;;;;18.19;36.72;100025.12;1680767;84;21162;-78
2021/04/22 10:30:23;;;;;;;9.95;6.58;;;;;;;17.97;37.12;100030.27;1667281;85;21278;-77
2021/04/22 10:32:51;;;;;;;10.80;5.87;;;;;;;17.59;37.87;100043.02;1665748;85;21215;-77
2021/04/22 10:35:22;;;;;;;11.55;6.22;;;;;;;17.29;41.48;100045.92;1669304;84;21828;-79
2021/04/22 10:37:53;;;;;;;9.20;5.55;;;;;;;17.08;45.72;100043.72;1688234;83;21212;-78
2021/04/22 10:40:24;;;;;;;;;;;;;;;16.83;47.73;100043.13;1693722;84;21172;-79
2021/04/22 10:42:54;;;;;;;12.30;6.22;;;;;;;16.58;46.83;100045.13;1692947;84;22596;-79
2021/04/22 10:45:23;;;;;;;9.70;5.65;;;;;;;16.43;47.69;100038.99;1682922;84;21190;-78
2021/04/22 10:47:50;;;;;;;11.35;5.65;;;;;;;16.30;48.63;100052.18;1685009;84;21168;-77
2021/04/22 10:50:32;;;;;;;10.32;7.00;;;;;;;16.09;48.37;100049.05;1704936;83;21192;-78
2021/04/22 10:53:11;;;;;;;9.70;6.67;;;;;;;15.94;50.05;100038.02;1703945;83;21624;-76
2021/04/22 10:55:44;;;;;;;20.62;5.72;;;;;;;15.75;52.77;100050.70;1701143;84;21832;-78
2021/04/22 10:58:26;;;;;;;16.65;6.92;;;;;;;15.52;54.04;100066.16;1662032;85;21196;-77
2021/04/22 11:01:03;;;;;;;12.98;6.75;;;;;;;15.28;56.41;100070.63;1727441;82;21660;-79
2021/04/22 11:03:42;;;;;;;10.68;7.85;;;;;;;15.03;57.29;100091.53;1746370;81;21186;-78
2021/04/22 11:06:20;;;;;;;9.15;5.97;;;;;;;14.63;59.37;100105.19;1709116;83;21191;-79
2021/04/22 11:08:54;;;;;;;6.08;4.58;;;;;;;14.28;57.96;100125.56;1747525;82;21813;-80
2021/04/22 11:11:25;;;;;;;7.50;5.42;;;;;;;13.80;54.87;100100.68;1709254;83;22197;-78
2021/04/22 11:14:15;;;;;;;6.45;5.10;;;;;;;13.28;57.40;100120.48;1746807;82;21155;-79
2021/04/22 11:16:53;;;;;;;8.08;5.78;;;;;;;13.10;56.68;100097.92;1747631;82;21159;-79
2021/04/22 11:19:31;;;;;;;8.43;6.10;;;;;;;13.27;61.13;100097.56;1743005;82;21175;-79
2021/04/22 11:22:03;;;;;;;7.97;5.45;;;;;;;13.43;61.35;100087.97;1729713;82;21179;-78
2021/04/22 11:24:35;;;;;;;9.93;7.10;;;;;;;13.60;59.54;100085.83;1716481;83;21155;-78
2021/04/22 11:27:12;;;;;;;8.60;5.58;;;;;;;13.64;57.54;100077.66;1745252;82;21135;-77
2021/04/22 11:29:58;;;;;;;7.80;5.70;;;;;;;13.69;57.33;100076.55;1743404;80;21224;-75
2021/04/22 11:32:34;;;;;;;14.30;6.97;;;;;;;13.73;57.84;100075.47;1740576;82;21167;-74